Time;durP1;ratioP1;P1;durP2;ratioP2;P2;SDS_P1;SDS_P2;PMS_P1;PMS_P2;Temp;Humidity;BMP_temperature;BMP_pressure;BME280_temperature;BME280_humidity;BME280_pressure;Samples;Min_cycle;Max_cycle;Signal;HPM_P1;HPM_P2
2021/08/06 00:02:22;;;;;;;;;0.00;0.00;;;;;21.75;56.08;96976.63;4881844;28;103787;-89
2021/08/06 00:04:49;;;;;;;;;0.00;0.00;;;;;21.76;55.72;96988.44;4875559;28;102939;-89
2021/08/06 00:07:16;;;;;;;;;0.00;0.00;;;;;21.75;55.81;96978.56;4900197;28;102353;-89
2021/08/06 00:09:48;;;;;;;;;0.00;0.00;;;;;21.74;55.86;96979.69;4861711;28;109824;-89
2021/08/06 00:12:21;;;;;;;;;0.00;0.00;;;;;21.75;55.98;96986.81;4898875;28;102547;-89
2021/08/06 00:14:53;;;;;;;;;0.00;0.00;;;;;21.74;55.88;96982.44;4913554;28;102307;-89
2021/08/06 00:17:25;;;;;;;;;0.00;0.00;;;;;21.73;55.75;96997.31;4902482;28;102507;-89
2021/08/06 00:19:58;;;;;;;;;0.33;0.00;;;;;21.71;55.55;96981.13;4905032;28;104290;-89
2021/08/06 00:22:35;;;;;;;;;0.00;0.00;;;;;21.71;55.50;96991.31;4906835;28;102899;-89
2021/08/06 00:25:10;;;;;;;;;0.00;0.00;;;;;21.66;55.35;96974.91;4897151;28;102721;-89
2021/08/06 00:27:47;;;;;;;;;0.33;0.00;;;;;21.69;55.84;96977.06;4904649;28;102447;-89
2021/08/06 00:30:21;;;;;;;;;0.00;0.00;;;;;21.69;56.08;96993.56;4913727;28;107928;-89
2021/08/06 00:32:54;;;;;;;;;0.00;0.00;;;;;21.69;55.95;96985.31;4881428;28;102849;-89
2021/08/06 00:35:27;;;;;;;;;0.67;0.00;;;;;21.68;55.69;96981.75;4905087;28;102695;-89
2021/08/06 00:38:04;;;;;;;;;0.00;0.00;;;;;;;;4897883;28;102671;-89
2021/08/06 00:40:37;;;;;;;;;0.00;0.00;;;;;21.68;55.74;96989.19;4889180;28;103396;-89
2021/08/06 00:43:12;;;;;;;;;0.00;0.00;;;;;21.69;55.62;96988.06;4904838;28;104524;-89
2021/08/06 00:45:44;;;;;;;;;0.00;0.00;;;;;21.66;55.33;96983.16;4916597;28;102414;-89
2021/08/06 00:48:12;;;;;;;;;1.00;0.00;;;;;21.65;55.47;96989.81;4899405;28;102217;-89
2021/08/06 00:50:39;;;;;;;;;0.00;0.00;;;;;21.63;55.21;96989.31;4896297;28;104075;-89
2021/08/06 00:53:07;;;;;;;;;0.00;0.00;;;;;21.62;55.63;96995.94;4881570;28;102523;-89
2021/08/06 00:55:34;;;;;;;;;0.00;0.00;;;;;21.62;55.90;96993.19;4900914;28;105075;-89
2021/08/06 00:58:01;;;;;;;;;0.00;0.00;;;;;21.61;55.93;96999.81;4909529;28;102738;-89
2021/08/06 01:00:29;;;;;;;;;0.33;0.00;;;;;21.60;55.45;96995.44;4889834;28;106187;-89
2021/08/06 01:03:18;;;;;;;;;0.00;0.00;;;;;21.60;55.75;96995.44;4856596;28;105404;-89
2021/08/06 01:05:52;;;;;;;;;0.00;0.00;;;;;21.61;55.27;96991.56;4882255;28;103186;-89
2021/08/06 01:08:27;;;;;;;;;0.00;0.00;;;;;21.60;55.53;96995.44;4869846;28;102333;-89
2021/08/06 01:10:58;;;;;;;;;0.00;0.00;;;;;21.59;55.26;96996.56;4857883;28;110413;-89
2021/08/06 01:14:02;;;;;;;;;0.00;0.00;;;;;21.59;55.40;96991.88;4838620;28;103756;-89
2021/08/06 01:16:36;;;;;;;;;0.00;0.00;;;;;21.57;55.76;96983.09;4844705;28;102668;-89
2021/08/06 01:19:48;;;;;;;;;0.00;0.00;;;;;21.57;55.38;97002.34;4887231;28;103485;-89
2021/08/06 01:22:33;;;;;;;;;0.00;0.00;;;;;21.56;55.43;96987.00;4831333;28;108933;-89
2021/08/06 01:25:17;;;;;;;;;0.00;0.00;;;;;21.57;55.35;96998.81;4816312;28;103196;-89
2021/08/06 01:27:51;;;;;;;;;1.00;0.00;;;;;21.55;55.49;96990.06;4892579;28;102413;-89
2021/08/06 01:30:26;;;;;;;;;0.00;0.00;;;;;21.54;55.42;96985.66;4896042;28;102706;-89
2021/08/06 01:32:59;;;;;;;;;0.00;0.00;;;;;21.52;55.47;96987.94;4875810;28;107802;-89
2021/08/06 01:35:32;;;;;;;;;0.00;0.00;;;;;21.54;55.42;96996.69;4890846;28;102612;-89
2021/08/06 01:38:11;;;;;;;;;0.00;0.00;;;;;21.54;55.30;96991.16;4889052;28;104043;-89
2021/08/06 01:41:03;;;;;;;;;0.00;0.00;;;;;21.53;55.68;96989.53;4900358;28;103106;-89
2021/08/06 01:43:42;;;;;;;;;0.00;0.00;;;;;21.54;55.56;96993.91;4832484;28;108862;-89
2021/08/06 01:46:28;;;;;;;;;0.00;0.00;;;;;21.53;55.56;96995.84;4906003;28;103899;-89
2021/08/06 01:49:22;;;;;;;;;0.00;0.00;;;;;21.51;55.32;97000.88;4871837;28;102308;-89
2021/08/06 01:52:04;;;;;;;;;0.00;0.00;;;;;21.44;54.98;96988.66;4904190;28;102469;-89
2021/08/06 01:54:35;;;;;;;;;0.00;0.00;;;;;21.50;55.57;96998.41;4842068;28;107798;-89
2021/08/06 01:57:02;;;;;;;;;0.00;0.00;;;;;21.50;55.57;96998.41;4902712;28;102518;-89
2021/08/06 01:59:30;;;;;;;;;0.00;0.00;;;;;21.51;55.19;97005.56;4905657;28;103242;-89
2021/08/06 02:01:57;;;;;;;;;0.00;0.00;;;;;21.50;55.08;97004.75;4894749;28;102888;-89
2021/08/06 02:04:25;;;;;;;;;0.00;0.00;;;;;21.49;55.30;97013.28;4908502;28;104008;-89
2021/08/06 02:06:52;;;;;;;;;0.00;0.00;;;;;21.49;55.39;96999.53;4886439;28;102556;-89
2021/08/06 02:09:20;;;;;;;;;0.00;0.00;;;;;21.49;55.51;97005.03;4906418;28;102438;-89
2021/08/06 02:11:47;;;;;;;;;0.00;0.00;;;;;21.48;55.55;97011.69;4906279;28;102679;-89
2021/08/06 02:14:17;;;;;;;;;0.00;0.00;;;;;21.49;55.01;97013.28;4911710;28;104047;-89
2021/08/06 02:16:46;;;;;;;;;0.00;0.00;;;;;21.47;55.02;97015.56;4923592;28;102122;-89
2021/08/06 02:19:13;;;;;;;;;0.00;0.00;;;;;21.46;55.39;97011.16;4916497;28;105161;-88
2021/08/06 02:21:41;;;;;;;;;0.00;0.00;;;;;21.47;54.99;97018.31;4901121;28;102776;-89
2021/08/06 02:24:10;;;;;;;;;0.00;0.00;;;;;21.46;54.71;97011.97;4922556;28;104065;-89
2021/08/06 02:26:38;;;;;;;;;0.00;0.00;;;;;21.45;55.03;97010.34;4914654;28;104495;-89
2021/08/06 02:29:11;;;;;;;;;0.00;0.00;;;;;21.44;54.81;97010.66;4892255;28;102804;-89
2021/08/06 02:31:39;;;;;;;;;0.00;0.00;;;;;21.42;54.82;97002.72;4928410;28;102662;-89
2021/08/06 02:34:06;;;;;;;;;0.00;0.00;;;;;21.44;54.86;97008.72;4909637;28;104063;-89
2021/08/06 02:36:34;;;;;;;;;0.00;0.00;;;;;21.43;54.77;97007.13;4898115;28;102418;-89
2021/08/06 02:39:01;;;;;;;;;0.00;0.00;;;;;21.42;55.00;97004.66;4923102;28;103260;-89
2021/08/06 02:41:28;;;;;;;;;0.00;0.00;;;;;21.42;55.24;97012.91;4894577;28;102658;-89
2021/08/06 02:43:56;;;;;;;;;0.00;0.00;;;;;21.42;54.83;97015.66;4921956;28;104104;-89
2021/08/06 02:46:24;;;;;;;;;0.00;0.00;;;;;21.42;54.98;97019.22;4926212;28;102195;-89
2021/08/06 02:48:51;;;;;;;;;0.00;0.00;;;;;21.42;55.18;97015.66;4911978;28;103180;-89
2021/08/06 02:51:18;;;;;;;;;0.00;0.00;;;;;21.40;54.65;97018.72;4925426;28;102734;-89
2021/08/06 02:53:45;;;;;;;;;0.00;0.00;;;;;21.38;54.58;97011.91;4915943;28;104615;-89
2021/08/06 02:56:12;;;;;;;;;0.00;0.00;;;;;21.39;54.74;97016.28;4908986;28;104588;-89
2021/08/06 02:58:40;;;;;;;;;0.33;0.00;;;;;21.39;54.58;97021.78;4920931;28;102404;-89
2021/08/06 03:01:07;;;;;;;;;0.00;0.00;;;;;21.39;54.75;97016.28;4919722;28;102620;-89
2021/08/06 03:03:34;;;;;;;;;0.00;0.00;;;;;21.38;54.88;97020.16;4911729;28;104091;-89
2021/08/06 03:06:02;;;;;;;;;0.00;0.00;;;;;21.35;54.81;97027.06;4915343;28;102603;-89
2021/08/06 03:08:29;;;;;;;;;0.00;0.00;;;;;21.36;54.80;97026.78;4899231;28;102684;-89
2021/08/06 03:10:56;;;;;;;;;0.00;0.00;;;;;21.35;54.68;97018.81;4920452;28;102203;-88
2021/08/06 03:13:23;;;;;;;;;0.00;0.00;;;;;21.35;54.38;97024.31;4921677;28;104080;-89
2021/08/06 03:15:50;;;;;;;;;0.00;0.00;;;;;21.34;54.74;97020.75;4886585;28;104419;-89
2021/08/06 03:18:17;;;;;;;;;0.00;0.00;;;;;21.26;54.51;97010.50;4882613;28;102784;-89
2021/08/06 03:20:44;;;;;;;;;0.33;0.00;;;;;21.32;54.90;97020.25;4888893;28;102542;-89
2021/08/06 03:23:12;;;;;;;;;0.00;0.00;;;;;21.31;54.56;97026.88;4881952;28;104183;-89
2021/08/06 03:25:39;;;;;;;;;0.00;0.00;;;;;21.32;54.81;97033.19;4880268;28;105022;-89
2021/08/06 03:28:06;;;;;;;;;0.00;0.00;;;;;21.31;54.27;97032.38;4893367;28;102372;-89
2021/08/06 03:30:33;;;;;;;;;0.00;0.00;;;;;21.31;54.82;97028.81;4885191;28;102630;-89
2021/08/06 03:33:00;;;;;;;;;0.00;0.00;;;;;21.28;54.49;97041.25;4894917;28;104301;-89
2021/08/06 03:35:28;;;;;;;;;0.00;0.00;;;;;21.29;54.54;97042.06;4894057;28;103710;-89
2021/08/06 03:37:55;;;;;;;;;0.00;0.00;;;;;21.30;54.34;97030.75;4892009;28;103475;-89
2021/08/06 03:40:22;;;;;;;;;0.33;0.33;;;;;21.28;54.49;97032.19;4886333;28;102465;-89
2021/08/06 03:42:49;;;;;;;;;0.00;0.00;;;;;21.26;54.63;97040.72;4887187;28;104230;-89
2021/08/06 03:45:16;;;;;;;;;0.00;0.00;;;;;21.27;54.15;97030.56;4886320;28;102613;-88
2021/08/06 03:47:44;;;;;;;;;0.00;0.00;;;;;21.26;54.23;97043.47;4882685;28;102733;-89
2021/08/06 03:50:11;;;;;;;;;0.00;0.00;;;;;21.26;54.50;97040.72;4891330;28;102987;-89
2021/08/06 03:52:38;;;;;;;;;0.00;0.00;;;;;21.25;54.61;97043.81;4885641;28;104471;-89
2021/08/06 03:55:06;;;;;;;;;0.00;0.00;;;;;21.25;54.66;97055.59;4895066;28;102526;-89
2021/08/06 03:57:33;;;;;;;;;0.00;0.00;;;;;21.22;54.50;97047.97;4884265;28;103613;-89
2021/08/06 04:00:00;;;;;;;;;0.00;0.00;;;;;21.23;54.57;97052.34;4898484;28;104191;-89
2021/08/06 04:02:27;;;;;;;;;0.67;0.33;;;;;21.23;54.47;97046.03;4885894;28;108935;-89
2021/08/06 04:04:54;;;;;;;;;0.00;0.00;;;;;21.23;54.01;97051.53;4891490;28;102203;-89
2021/08/06 04:07:22;;;;;;;;;0.67;0.67;;;;;21.22;54.40;97050.72;4904088;28;102347;-89
2021/08/06 04:09:49;;;;;;;;;0.00;0.00;;;;;21.22;54.33;97056.22;4892045;28;102508;-89
2021/08/06 04:12:16;;;;;;;;;0.00;0.00;;;;;21.20;54.48;97055.72;4885119;28;104639;-89
2021/08/06 04:14:43;;;;;;;;;0.00;0.00;;;;;21.20;54.17;97057.66;4896218;28;102730;-88
2021/08/06 04:17:10;;;;;;;;;0.67;0.67;;;;;21.18;54.33;97055.22;4909245;28;102400;-88
2021/08/06 04:19:38;;;;;;;;;0.33;0.33;;;;;21.19;54.42;97058.78;4915248;28;102599;-89
2021/08/06 04:22:05;;;;;;;;;0.67;0.67;;;;;21.20;54.55;97069.47;4919031;28;104015;-88
2021/08/06 04:24:32;;;;;;;;;0.00;0.00;;;;;21.17;54.35;97069.25;4919318;28;102287;-89
2021/08/06 04:26:59;;;;;;;;;0.00;0.00;;;;;21.16;54.17;97068.47;4914821;28;104654;-89
2021/08/06 04:29:26;;;;;;;;;1.00;1.00;;;;;21.18;54.43;97073.63;4923576;28;102616;-88
2021/08/06 04:31:54;;;;;;;;;0.67;0.67;;;;;21.17;54.16;97075.56;4912503;28;104276;-88
2021/08/06 04:34:21;;;;;;;;;0.00;0.00;;;;;21.18;54.06;97082.69;4911944;28;102138;-88
2021/08/06 04:36:52;;;;;;;;;0.67;0.67;;;;;21.16;54.07;97081.38;4914839;28;104967;-88
2021/08/06 04:39:20;;;;;;;;;1.00;0.67;;;;;21.16;54.51;97073.97;4917396;28;102906;-88
2021/08/06 04:41:49;;;;;;;;;0.00;0.00;;;;;21.16;54.09;97075.88;4901085;28;105204;-88
2021/08/06 04:44:17;;;;;;;;;0.67;0.00;;;;;21.15;54.38;97083.31;4911714;28;103757;-88
2021/08/06 04:46:44;;;;;;;;;0.00;0.00;;;;;21.15;54.09;97066.00;4900590;28;102374;-88
2021/08/06 04:49:11;;;;;;;;;0.67;0.67;;;;;21.14;54.20;97078.94;4906144;28;102211;-89
2021/08/06 04:51:39;;;;;;;;;0.67;0.67;;;;;21.13;54.37;97077.28;4912377;28;105093;-89
2021/08/06 04:54:06;;;;;;;;;0.33;0.33;;;;;21.13;53.98;97079.22;4910757;28;102515;-89
2021/08/06 04:56:33;;;;;;;;;0.33;0.00;;;;;21.11;54.47;97076.78;4913761;28;102649;-89
2021/08/06 04:59:00;;;;;;;;;0.00;0.00;;;;;21.10;54.30;97074.31;4924618;28;104065;-89
2021/08/06 05:01:29;;;;;;;;;0.00;0.00;;;;;21.11;54.20;97068.53;4910984;28;108935;-88
2021/08/06 05:03:56;;;;;;;;;0.67;0.67;;;;;21.10;53.89;97079.81;4908013;28;102883;-88
2021/08/06 05:06:24;;;;;;;;;1.00;0.00;;;;;21.10;54.24;97079.81;4916521;28;102023;-89
2021/08/06 05:08:51;;;;;;;;;0.00;0.00;;;;;21.09;54.32;97075.44;4900859;28;103226;-89
2021/08/06 05:11:18;;;;;;;;;0.67;0.67;;;;;21.09;54.43;97089.19;4911979;28;104329;-88
2021/08/06 05:14:22;;;;;;;;;0.67;0.67;;;;;21.09;54.03;97091.94;4907989;28;102680;-88
2021/08/06 05:16:50;;;;;;;;;0.00;0.00;;;;;21.07;54.21;97081.25;4848259;28;102418;-88
2021/08/06 05:19:17;;;;;;;;;0.33;0.33;;;;;21.07;54.37;97094.19;4903525;28;102798;-88
2021/08/06 05:21:44;;;;;;;;;0.67;0.67;;;;;21.07;54.39;97094.19;4922056;28;104093;-88
2021/08/06 05:24:11;;;;;;;;;0.67;0.67;;;;;21.07;54.61;97097.75;4915902;28;102525;-89
2021/08/06 05:26:39;;;;;;;;;0.67;0.67;;;;;21.05;54.37;97099.97;4914939;28;102305;-89
2021/08/06 05:29:06;;;;;;;;;1.00;1.00;;;;;21.05;54.40;97099.97;4918086;28;102693;-89
2021/08/06 05:31:33;;;;;;;;;0.00;0.00;;;;;21.06;54.35;97100.78;4901617;28;104297;-89
2021/08/06 05:34:00;;;;;;;;;1.00;1.00;;;;;21.05;54.40;97105.47;4918364;28;102511;-89
2021/08/06 05:36:28;;;;;;;;;0.67;0.67;;;;;21.05;54.63;97107.41;4919616;28;105077;-88
2021/08/06 05:38:55;;;;;;;;;0.67;0.67;;;;;21.05;54.10;97110.97;4911887;28;104089;-88
2021/08/06 05:41:22;;;;;;;;;0.00;0.00;;;;;21.06;54.60;97109.03;4915389;28;104230;-88
2021/08/06 05:43:49;;;;;;;;;0.00;0.00;;;;;21.05;54.36;97121.97;4890709;28;102357;-88
2021/08/06 05:46:16;;;;;;;;;0.67;0.67;;;;;21.03;54.86;97128.88;4902625;28;102650;-88
2021/08/06 05:48:43;;;;;;;;;1.67;1.67;;;;;21.04;54.31;97130.50;4902327;28;102541;-88
2021/08/06 05:51:10;;;;;;;;;1.00;0.67;;;;;21.05;54.38;97127.47;4900458;28;104114;-88
2021/08/06 05:53:38;;;;;;;;;0.67;0.67;;;;;21.03;54.64;97132.44;4889605;28;102254;-88
2021/08/06 05:56:05;;;;;;;;;0.67;0.67;;;;;21.03;54.81;97129.69;4912327;28;102472;-89
2021/08/06 05:58:32;;;;;;;;;0.67;0.67;;;;;21.03;54.32;97140.66;4918421;28;102198;-89
2021/08/06 06:01:01;;;;;;;;;0.67;0.67;;;;;21.04;55.46;97138.75;4910111;28;108832;-87
2021/08/06 06:03:28;;;;;;;;;1.67;1.67;;;;;21.02;55.46;97136.31;4910486;28;102449;-86
2021/08/06 06:05:55;;;;;;;;;1.00;1.00;;;;;21.05;56.71;97135.69;4909165;28;102534;-84
2021/08/06 06:08:23;;;;;;;;;2.33;2.33;;;;;21.08;57.14;97145.25;4906516;28;104041;-86
2021/08/06 06:10:50;;;;;;;;;3.67;3.67;;;;;21.10;58.20;97148.53;4919383;28;104216;-87
2021/08/06 06:13:17;;;;;;;;;4.33;4.33;;;;;21.13;57.97;97145.19;4903568;28;103743;-90
2021/08/06 06:15:44;;;;;;;;;5.33;5.33;;;;;21.15;57.88;97154.78;4897409;28;103420;-90
2021/08/06 06:18:11;;;;;;;;;7.00;7.00;;;;;21.14;59.03;97144.91;4903577;28;102275;-89
2021/08/06 06:20:39;;;;;;;;;6.00;6.00;;;;;21.14;59.48;97147.66;4872436;28;110433;-92
2021/08/06 06:23:06;;;;;;;;;6.67;6.67;;;;;21.14;59.67;97153.16;4895206;28;102438;-92
2021/08/06 06:25:33;;;;;;;;;6.00;5.67;;;;;21.12;59.43;97149.84;4891657;28;102272;-91
2021/08/06 06:28:02;;;;;;;;;6.67;6.00;;;;;21.13;59.43;97157.00;4886457;28;103638;-92
2021/08/06 06:30:30;;;;;;;;;5.67;5.67;;;;;21.13;59.10;97158.94;4878673;28;111048;-92
2021/08/06 06:32:59;;;;;;;;;3.67;3.67;;;;;21.15;59.10;97163.03;4890996;28;102380;-93
2021/08/06 06:35:26;;;;;;;;;4.00;4.00;;;;;21.15;58.94;97154.78;4889870;28;102752;-93
2021/08/06 06:37:54;;;;;;;;;5.00;4.67;;;;;21.15;58.59;97157.53;4892091;28;102608;-93
2021/08/06 06:40:21;;;;;;;;;4.67;4.00;;;;;21.16;58.68;97156.44;4864464;28;104052;-90
2021/08/06 06:42:49;;;;;;;;;3.67;3.67;;;;;21.10;58.16;97163.09;4888103;28;102535;-90
2021/08/06 06:45:17;;;;;;;;;4.00;3.33;;;;;21.14;58.29;97163.31;4897489;28;102427;-92
2021/08/06 06:47:49;;;;;;;;;5.33;4.33;;;;;21.15;58.23;97165.78;4893155;28;104876;-92
2021/08/06 06:50:19;;;;;;;;;2.67;2.67;;;;;21.14;58.90;97166.91;4885106;28;104107;-91
2021/08/06 06:52:47;;;;;;;;;4.33;3.67;;;;;21.14;58.71;97157.84;4870680;28;103414;-90
2021/08/06 06:55:15;;;;;;;;;3.67;3.00;;;;;21.17;58.55;97169.03;4886832;28;102603;-89
2021/08/06 06:57:49;;;;;;;;;3.67;3.67;;;;;21.17;58.27;97166.28;4870595;28;102685;-89
2021/08/06 07:00:19;;;;;;;;;2.67;2.67;;;;;21.16;58.13;97167.41;4892666;28;104259;-93
2021/08/06 07:02:46;;;;;;;;;3.33;3.33;;;;;21.18;58.54;97170.66;4861426;28;102239;-92
2021/08/06 07:05:13;;;;;;;;;3.00;3.00;;;;;21.17;58.40;97166.28;4887088;28;104066;-93
2021/08/06 07:07:40;;;;;;;;;3.67;3.67;;;;;21.17;58.98;97180.03;4862350;28;103450;-93
2021/08/06 07:10:08;;;;;;;;;4.33;3.33;;;;;21.10;59.16;97162.28;4892666;28;104296;-93
2021/08/06 07:12:39;;;;;;;;;2.67;2.67;;;;;21.14;58.10;97180.63;4887770;28;102473;-93
2021/08/06 07:15:07;;;;;;;;;3.33;2.67;;;;;21.18;58.59;97186.34;4878620;28;102688;-93
2021/08/06 07:17:35;;;;;;;;;3.67;2.67;;;;;21.19;58.53;97191.53;4889911;28;103382;-94
2021/08/06 07:20:03;;;;;;;;;3.33;2.67;;;;;21.12;58.51;97173.78;4883474;28;109019;-93
2021/08/06 07:22:30;;;;;;;;;3.00;3.00;;;;;21.18;58.33;97187.16;4897694;28;102483;-94
2021/08/06 07:24:58;;;;;;;;;2.00;2.00;;;;;21.19;58.97;97197.03;4886683;28;102128;-93
2021/08/06 07:27:25;;;;;;;;;2.00;2.00;;;;;21.17;58.95;97192.94;4879027;28;102669;-93
2021/08/06 07:29:52;;;;;;;;;3.33;2.67;;;;;21.19;58.71;97197.03;4894130;28;104835;-93
2021/08/06 07:32:19;;;;;;;;;4.00;3.00;;;;;21.19;58.63;97202.53;4877827;28;102577;-93
2021/08/06 07:34:52;;;;;;;;;3.00;2.33;;;;;21.19;58.53;97199.78;4883102;28;110982;-94
2021/08/06 07:37:20;;;;;;;;;1.67;1.67;;;;;21.19;58.64;97209.97;4892043;28;103297;-94
2021/08/06 07:39:49;;;;;;;;;2.67;2.67;;;;;21.20;58.71;97201.44;4878306;28;104282;-94
2021/08/06 07:42:16;;;;;;;;;3.00;2.33;;;;;21.19;58.63;97204.47;4880752;28;103046;-94
2021/08/06 07:44:44;;;;;;;;;3.67;2.67;;;;;21.18;58.26;97202.84;4885529;28;102609;-95
2021/08/06 07:47:11;;;;;;;;;2.67;2.67;;;;;21.20;58.60;97215.19;4883902;28;103325;-94
2021/08/06 07:49:41;;;;;;;;;2.67;2.67;;;;;21.21;58.60;97214.03;4887846;28;104125;-94
2021/08/06 07:52:12;;;;;;;;;1.67;1.67;;;;;21.23;58.54;97211.81;4893397;28;110289;-92
2021/08/06 07:54:39;;;;;;;;;3.33;2.67;;;;;21.20;58.27;97217.09;4883903;28;103416;-93
2021/08/06 07:57:06;;;;;;;;;2.67;2.67;;;;;21.25;58.16;97223.31;4895704;28;102544;-94
2021/08/06 07:59:33;;;;;;;;;2.00;2.00;;;;;21.24;58.38;97218.94;4887757;28;108918;-94
2021/08/06 08:02:01;;;;;;;;;2.00;2.00;;;;;21.23;58.29;97239.31;4879724;28;102577;-91
2021/08/06 08:04:28;;;;;;;;;4.33;2.67;;;;;21.22;58.22;97229.41;4886072;28;102291;-93
2021/08/06 08:06:55;;;;;;;;;2.00;1.67;;;;;21.23;57.78;97228.31;4895572;28;103202;-93
2021/08/06 08:09:22;;;;;;;;;2.67;1.33;;;;;21.23;57.91;97233.81;4884690;28;104260;-92
2021/08/06 08:11:50;;;;;;;;;2.00;2.00;;;;;21.24;58.39;97238.19;4891115;28;105370;-92
2021/08/06 08:14:17;;;;;;;;;2.67;2.67;;;;;21.24;57.85;97240.94;4887235;28;102566;-92
2021/08/06 08:16:44;;;;;;;;;2.67;2.67;;;;;21.25;58.22;97241.75;4881145;28;102278;-93
2021/08/06 08:19:11;;;;;;;;;3.33;3.33;;;;;21.25;58.21;97247.25;4896083;28;104297;-93
2021/08/06 08:21:39;;;;;;;;;4.00;2.67;;;;;21.25;58.12;97241.75;4890696;28;102511;-93
2021/08/06 08:24:06;;;;;;;;;2.00;2.00;;;;;21.23;58.06;97242.06;4891182;28;103569;-92
2021/08/06 08:26:34;;;;;;;;;2.00;1.67;;;;;21.25;58.30;97239.78;4895526;28;102881;-93
2021/08/06 08:29:02;;;;;;;;;1.33;1.33;;;;;21.25;57.74;97241.75;4870756;28;104014;-92
2021/08/06 08:31:29;;;;;;;;;3.33;3.33;;;;;21.24;58.29;97234.63;4895430;28;102019;-92
2021/08/06 08:33:56;;;;;;;;;3.33;3.33;;;;;21.25;58.11;97233.50;4893602;28;102753;-91
2021/08/06 08:36:23;;;;;;;;;2.00;2.00;;;;;21.23;58.07;97246.72;4884599;28;102656;-92
2021/08/06 08:38:51;;;;;;;;;2.67;2.67;;;;;21.22;58.99;97237.66;4892428;28;104007;-92
2021/08/06 08:41:18;;;;;;;;;2.00;2.00;;;;;21.24;59.14;97245.63;4894250;28;102485;-92
2021/08/06 08:43:45;;;;;;;;;2.67;1.67;;;;;21.27;58.94;97242.25;4863683;28;103292;-92
2021/08/06 08:46:12;;;;;;;;;1.67;1.00;;;;;21.27;58.88;97245.00;4896020;28;102587;-92
2021/08/06 08:48:39;;;;;;;;;1.67;1.67;;;;;21.21;58.61;97236.03;4903120;28;104196;-92
2021/08/06 08:51:07;;;;;;;;;3.00;3.00;;;;;21.26;58.78;97244.19;4890163;28;102543;-92
2021/08/06 08:53:34;;;;;;;;;1.67;1.67;;;;;21.28;58.94;97254.91;4879585;28;102291;-92
2021/08/06 08:56:01;;;;;;;;;2.00;2.00;;;;;21.27;58.94;97251.31;4878605;28;109506;-93
2021/08/06 08:58:28;;;;;;;;;2.67;2.67;;;;;21.29;58.82;97253.78;4885058;28;104142;-93
2021/08/06 09:00:55;;;;;;;;;1.67;1.67;;;;;21.31;58.58;97255.09;4885282;28;102399;-92
2021/08/06 09:03:37;;;;;;;;;2.67;2.67;;;;;21.30;58.79;97250.72;4893388;28;102520;-93
2021/08/06 09:06:04;;;;;;;;;3.00;2.33;;;;;21.31;59.09;97251.53;4884068;28;103120;-93
2021/08/06 09:08:31;;;;;;;;;3.67;3.33;;;;;21.29;59.02;97249.09;4894123;28;104352;-92
2021/08/06 09:10:59;;;;;;;;;2.00;2.00;;;;;21.28;58.75;97250.22;4902220;28;102615;-92
2021/08/06 09:13:26;;;;;;;;;3.00;2.67;;;;;21.26;59.55;97241.44;4880371;28;103170;-92
2021/08/06 09:15:56;;;;;;;;;3.00;2.67;;;;;21.31;59.04;97257.84;4899473;28;102700;-92
2021/08/06 09:18:23;;;;;;;;;3.33;2.67;;;;;21.24;59.09;97240.13;4919999;28;104534;-92
2021/08/06 09:20:56;;;;;;;;;1.67;1.67;;;;;21.35;59.22;97258.06;4900427;28;103410;-90
2021/08/06 09:23:40;;;;;;;;;2.67;2.33;;;;;21.35;58.95;97247.03;4906425;28;103414;-90
2021/08/06 09:26:10;;;;;;;;;3.33;3.33;;;;;21.36;58.95;97248.69;4902031;28;102264;-90
2021/08/06 09:29:05;;;;;;;;;2.67;1.67;;;;;21.34;59.41;97254.47;4862066;28;108905;-90
2021/08/06 09:32:09;;;;;;;;;2.00;2.00;;;;;21.31;59.42;97266.09;4826037;28;110599;-90
2021/08/06 09:34:36;;;;;;;;;3.33;3.00;;;;;21.24;59.38;97249.19;4831631;28;102530;-90
2021/08/06 09:37:06;;;;;;;;;2.00;2.00;;;;;21.32;59.43;97270.47;4892576;28;102634;-86
2021/08/06 09:39:43;;;;;;;;;2.00;1.67;;;;;21.33;59.48;97272.13;4890537;28;104521;-90
2021/08/06 09:42:24;;;;;;;;;2.00;2.00;;;;;21.35;59.54;97269.88;4903672;28;102613;-89
2021/08/06 09:45:03;;;;;;;;;2.00;2.00;;;;;21.38;59.28;97279.47;4844023;28;102706;-89
2021/08/06 09:47:31;;;;;;;;;1.00;1.00;;;;;21.37;59.49;97266.81;4895991;28;102578;-90
2021/08/06 09:49:59;;;;;;;;;2.33;1.67;;;;;21.39;60.18;97275.56;4896584;28;104230;-90
2021/08/06 09:52:32;;;;;;;;;2.67;2.67;;;;;21.39;60.76;97313.28;4898948;28;103035;-90
2021/08/06 09:55:37;;;;;;;;;2.67;2.67;;;;;21.38;60.78;97315.22;4889301;28;103294;-88
2021/08/06 09:58:19;;;;;;;;;2.33;2.00;;;;;21.38;61.28;97325.41;4892918;28;102607;-89
2021/08/06 10:00:49;;;;;;;;;2.00;2.00;;;;;21.36;61.40;97323.75;4899125;28;108948;-88
2021/08/06 10:03:34;;;;;;;;;2.00;2.00;;;;;21.38;60.98;97323.47;4887403;28;102647;-87
2021/08/06 10:06:21;;;;;;;;;2.33;2.33;;;;;21.38;60.96;97339.16;4903729;28;102718;-89
2021/08/06 10:08:48;;;;;;;;;3.00;2.67;;;;;21.38;61.49;97334.47;4846691;28;102972;-88
2021/08/06 10:11:15;;;;;;;;;1.67;1.67;;;;;21.40;61.05;97331.38;4896461;28;104208;-87
2021/08/06 10:13:43;;;;;;;;;2.67;2.67;;;;;21.39;60.94;97329.78;4902008;28;102669;-88
2021/08/06 10:16:11;;;;;;;;;4.00;3.00;;;;;21.39;60.84;97335.28;4920250;28;103069;-88
2021/08/06 10:18:40;;;;;;;;;1.00;1.00;;;;;21.40;61.51;97329.47;4917647;28;103613;-86
2021/08/06 10:21:09;;;;;;;;;2.00;2.00;;;;;21.40;61.47;97332.22;4920900;28;112075;-86
2021/08/06 10:23:36;;;;;;;;;1.67;1.67;;;;;21.41;61.65;97333.03;4913098;28;102587;-86
2021/08/06 10:26:07;;;;;;;;;2.00;2.00;;;;;21.40;61.62;97331.38;4912880;28;102377;-87
2021/08/06 10:28:36;;;;;;;;;1.00;1.00;;;;;21.39;61.46;97332.53;4914445;28;102269;-91
2021/08/06 10:31:22;;;;;;;;;1.67;1.67;;;;;21.39;61.44;97341.56;4908069;28;104912;-86
2021/08/06 10:34:11;;;;;;;;;2.00;2.00;;;;;21.39;61.48;97333.31;4842200;28;103513;-85
2021/08/06 10:36:45;;;;;;;;;1.67;1.67;;;;;21.40;60.94;97336.91;4919971;28;105239;-82
2021/08/06 10:39:31;;;;;;;;;1.67;1.67;;;;;21.40;61.58;97336.91;4901950;28;102183;-82
2021/08/06 10:41:58;;;;;;;;;2.67;2.00;;;;;21.41;61.71;97333.03;4852063;28;109109;-82
2021/08/06 10:44:25;;;;;;;;;2.33;2.33;;;;;21.40;61.11;97323.97;4920863;28;102639;-82
2021/08/06 10:46:57;;;;;;;;;2.00;2.00;;;;;21.39;61.23;97325.06;4917073;28;103602;-82
2021/08/06 10:49:26;;;;;;;;;2.00;1.67;;;;;21.39;61.42;97335.28;4913336;28;103318;-82
2021/08/06 10:52:15;;;;;;;;;1.67;1.67;;;;;21.38;61.49;97330.91;4919731;28;104165;-82
2021/08/06 10:54:42;;;;;;;;;2.00;2.00;;;;;21.40;61.83;97323.13;4913649;28;102414;-82
2021/08/06 10:57:20;;;;;;;;;2.00;2.00;;;;;21.38;61.88;97323.47;4918086;28;102517;-82
2021/08/06 10:59:48;;;;;;;;;2.00;2.00;;;;;21.39;61.85;97340.78;4909787;28;102526;-81
2021/08/06 11:02:33;;;;;;;;;1.00;1.00;;;;;21.39;61.84;97349.03;4884912;28;104089;-82
2021/08/06 11:05:01;;;;;;;;;1.67;1.00;;;;;21.36;61.77;97343.00;4909913;28;103324;-82
2021/08/06 11:07:35;;;;;;;;;1.67;1.67;;;;;21.39;62.00;97346.28;4921048;28;103249;-84
2021/08/06 11:10:03;;;;;;;;;2.00;2.00;;;;;21.36;62.05;97342.19;4915392;28;102600;-84
2021/08/06 11:12:32;;;;;;;;;2.67;2.00;;;;;21.36;61.86;97348.50;4911860;28;104423;-85
2021/08/06 11:15:06;;;;;;;;;1.33;1.33;;;;;21.38;61.79;97353.72;4921560;28;102255;-85
2021/08/06 11:17:42;;;;;;;;;1.67;1.67;;;;;21.40;61.42;97342.38;4875032;28;102875;-85
2021/08/06 11:20:20;;;;;;;;;1.67;1.67;;;;;21.38;61.58;97342.72;4887506;28;102341;-86
2021/08/06 11:22:48;;;;;;;;;0.67;0.67;;;;;21.38;61.49;97345.47;4895163;28;109237;-86
2021/08/06 11:25:24;;;;;;;;;1.67;1.67;;;;;21.37;62.36;97346.56;4898048;28;103359;-86
2021/08/06 11:27:52;;;;;;;;;1.33;1.00;;;;;21.38;61.49;97348.22;4885059;28;103782;-85
2021/08/06 11:30:25;;;;;;;;;0.67;0.67;;;;;21.37;61.82;97343.81;4895013;28;102267;-85
2021/08/06 11:32:54;;;;;;;;;2.00;1.67;;;;;21.36;61.93;97345.75;4895249;28;104230;-85
2021/08/06 11:35:34;;;;;;;;;0.67;0.67;;;;;21.36;62.26;97347.69;4892211;28;102456;-85
2021/08/06 11:38:05;;;;;;;;;1.33;0.67;;;;;21.36;61.90;97355.94;4891167;28;102180;-85
2021/08/06 11:40:33;;;;;;;;;1.67;1.67;;;;;21.35;62.20;97354.28;4896908;28;102540;-85
2021/08/06 11:43:24;;;;;;;;;0.67;0.67;;;;;21.35;62.53;97352.38;4890295;28;104140;-85